sensor_id;sensor_type;location;lat;lon;timestamp;P1;durP1;ratioP1;P2;durP2;ratioP2
78732;SDS011;68056;52.530;5.454;2023-02-23T00:01:38;45.38;;;18.00;;
78732;SDS011;68056;52.530;5.454;2023-02-23T00:04:05;47.90;;;21.63;;
78732;SDS011;68056;52.530;5.454;2023-02-23T00:06:33;39.20;;;18.48;;
78732;SDS011;68056;52.530;5.454;2023-02-23T00:09:00;52.08;;;22.98;;
78732;SDS011;68056;52.530;5.454;2023-02-23T00:11:26;50.58;;;21.48;;
78732;SDS011;68056;52.530;5.454;2023-02-23T00:13:57;41.15;;;19.70;;
78732;SDS011;68056;52.530;5.454;2023-02-23T00:16:25;39.60;;;17.10;;
78732;SDS011;68056;52.530;5.454;2023-02-23T00:18:54;55.53;;;20.55;;
78732;SDS011;68056;52.530;5.454;2023-02-23T00:21:25;41.53;;;17.90;;
78732;SDS011;68056;52.530;5.454;2023-02-23T00:23:54;54.22;;;20.08;;
78732;SDS011;68056;52.530;5.454;2023-02-23T00:26:22;44.58;;;19.92;;
78732;SDS011;68056;52.530;5.454;2023-02-23T00:28:54;45.70;;;19.58;;
78732;SDS011;68056;52.530;5.454;2023-02-23T00:31:20;52.92;;;20.17;;
78732;SDS011;68056;52.530;5.454;2023-02-23T00:33:50;49.90;;;22.25;;
78732;SDS011;68056;52.530;5.454;2023-02-23T00:36:18;52.13;;;21.80;;
78732;SDS011;68056;52.530;5.454;2023-02-23T00:38:45;47.03;;;19.77;;
78732;SDS011;68056;52.530;5.454;2023-02-23T00:41:12;37.63;;;18.20;;
78732;SDS011;68056;52.530;5.454;2023-02-23T00:43:44;38.78;;;17.05;;
78732;SDS011;68056;52.530;5.454;2023-02-23T00:46:12;50.30;;;22.55;;
78732;SDS011;68056;52.530;5.454;2023-02-23T00:48:46;44.60;;;21.00;;
78732;SDS011;68056;52.530;5.454;2023-02-23T00:51:13;59.70;;;24.35;;
78732;SDS011;68056;52.530;5.454;2023-02-23T00:53:40;50.20;;;23.27;;
78732;SDS011;68056;52.530;5.454;2023-02-23T00:56:07;41.97;;;18.23;;
78732;SDS011;68056;52.530;5.454;2023-02-23T00:58:35;43.88;;;19.02;;
78732;SDS011;68056;52.530;5.454;2023-02-23T01:01:01;44.05;;;19.67;;
78732;SDS011;68056;52.530;5.454;2023-02-23T01:03:37;40.08;;;17.65;;
78732;SDS011;68056;52.530;5.454;2023-02-23T01:06:04;43.15;;;19.67;;
78732;SDS011;68056;52.530;5.454;2023-02-23T01:08:32;43.03;;;17.13;;
78732;SDS011;68056;52.530;5.454;2023-02-23T01:10:58;51.47;;;19.75;;
78732;SDS011;68056;52.530;5.454;2023-02-23T01:13:29;44.55;;;18.80;;
78732;SDS011;68056;52.530;5.454;2023-02-23T01:15:55;44.30;;;20.02;;
78732;SDS011;68056;52.530;5.454;2023-02-23T01:18:20;40.97;;;18.02;;
78732;SDS011;68056;52.530;5.454;2023-02-23T01:20:46;40.67;;;17.90;;
78732;SDS011;68056;52.530;5.454;2023-02-23T01:23:12;39.95;;;17.20;;
78732;SDS011;68056;52.530;5.454;2023-02-23T01:25:40;39.22;;;17.88;;
78732;SDS011;68056;52.530;5.454;2023-02-23T01:28:07;39.05;;;17.58;;
78732;SDS011;68056;52.530;5.454;2023-02-23T01:30:37;34.28;;;17.23;;
78732;SDS011;68056;52.530;5.454;2023-02-23T01:33:03;40.97;;;16.05;;
78732;SDS011;68056;52.530;5.454;2023-02-23T01:35:30;37.50;;;16.35;;
78732;SDS011;68056;52.530;5.454;2023-02-23T01:37:57;35.88;;;15.35;;
78732;SDS011;68056;52.530;5.454;2023-02-23T01:40:24;32.33;;;13.88;;
78732;SDS011;68056;52.530;5.454;2023-02-23T01:42:57;38.85;;;16.13;;
78732;SDS011;68056;52.530;5.454;2023-02-23T01:45:33;31.30;;;16.05;;
78732;SDS011;68056;52.530;5.454;2023-02-23T01:48:01;40.85;;;16.98;;
78732;SDS011;68056;52.530;5.454;2023-02-23T01:53:29;38.65;;;15.35;;
78732;SDS011;68056;52.530;5.454;2023-02-23T01:55:59;42.88;;;17.52;;
78732;SDS011;68056;52.530;5.454;2023-02-23T01:58:28;38.33;;;15.85;;
78732;SDS011;68056;52.530;5.454;2023-02-23T02:00:55;37.47;;;17.83;;
78732;SDS011;68056;52.530;5.454;2023-02-23T02:03:28;38.60;;;15.52;;
78732;SDS011;68056;52.530;5.454;2023-02-23T02:08:22;38.63;;;17.08;;
78732;SDS011;68056;52.530;5.454;2023-02-23T02:10:50;34.20;;;16.60;;
78732;SDS011;68056;52.530;5.454;2023-02-23T02:13:20;35.88;;;16.73;;
78732;SDS011;68056;52.530;5.454;2023-02-23T02:16:01;34.53;;;15.77;;
78732;SDS011;68056;52.530;5.454;2023-02-23T02:21:35;37.40;;;14.98;;
78732;SDS011;68056;52.530;5.454;2023-02-23T02:30:09;37.95;;;15.70;;
78732;SDS011;68056;52.530;5.454;2023-02-23T02:35:41;36.60;;;15.82;;
78732;SDS011;68056;52.530;5.454;2023-02-23T02:38:20;45.45;;;16.90;;
78732;SDS011;68056;52.530;5.454;2023-02-23T02:41:15;32.35;;;14.65;;
78732;SDS011;68056;52.530;5.454;2023-02-23T02:44:00;34.25;;;14.68;;
78732;SDS011;68056;52.530;5.454;2023-02-23T02:46:40;39.92;;;15.15;;
78732;SDS011;68056;52.530;5.454;2023-02-23T02:49:14;39.20;;;15.75;;
78732;SDS011;68056;52.530;5.454;2023-02-23T02:52:15;40.47;;;15.30;;
78732;SDS011;68056;52.530;5.454;2023-02-23T02:54:52;39.55;;;15.13;;
78732;SDS011;68056;52.530;5.454;2023-02-23T02:57:21;42.35;;;15.88;;
78732;SDS011;68056;52.530;5.454;2023-02-23T02:59:50;39.72;;;15.80;;
78732;SDS011;68056;52.530;5.454;2023-02-23T03:02:35;37.38;;;15.73;;
78732;SDS011;68056;52.530;5.454;2023-02-23T03:05:23;32.75;;;14.55;;
78732;SDS011;68056;52.530;5.454;2023-02-23T03:08:22;38.95;;;14.23;;
78732;SDS011;68056;52.530;5.454;2023-02-23T03:11:18;36.50;;;14.35;;
78732;SDS011;68056;52.530;5.454;2023-02-23T03:20:06;36.38;;;14.85;;
78732;SDS011;68056;52.530;5.454;2023-02-23T03:26:07;34.13;;;15.38;;
78732;SDS011;68056;52.530;5.454;2023-02-23T03:29:00;34.38;;;13.30;;
78732;SDS011;68056;52.530;5.454;2023-02-23T03:35:20;29.23;;;15.43;;
78732;SDS011;68056;52.530;5.454;2023-02-23T03:38:20;36.60;;;14.73;;
78732;SDS011;68056;52.530;5.454;2023-02-23T03:41:13;41.28;;;18.52;;
78732;SDS011;68056;52.530;5.454;2023-02-23T03:44:02;34.35;;;16.17;;
78732;SDS011;68056;52.530;5.454;2023-02-23T03:46:52;42.55;;;18.38;;
78732;SDS011;68056;52.530;5.454;2023-02-23T03:49:38;43.25;;;18.00;;
78732;SDS011;68056;52.530;5.454;2023-02-23T03:52:25;33.13;;;16.65;;
78732;SDS011;68056;52.530;5.454;2023-02-23T03:55:23;37.92;;;14.70;;
78732;SDS011;68056;52.530;5.454;2023-02-23T03:58:13;37.88;;;16.45;;
78732;SDS011;68056;52.530;5.454;2023-02-23T04:01:01;43.05;;;15.95;;
78732;SDS011;68056;52.530;5.454;2023-02-23T04:03:50;33.75;;;14.75;;
78732;SDS011;68056;52.530;5.454;2023-02-23T04:06:37;34.47;;;15.32;;
78732;SDS011;68056;52.530;5.454;2023-02-23T04:09:24;35.70;;;15.82;;
78732;SDS011;68056;52.530;5.454;2023-02-23T04:12:10;49.38;;;16.92;;
78732;SDS011;68056;52.530;5.454;2023-02-23T04:15:11;43.35;;;15.65;;
78732;SDS011;68056;52.530;5.454;2023-02-23T04:17:44;40.60;;;15.15;;
78732;SDS011;68056;52.530;5.454;2023-02-23T04:20:11;42.50;;;15.45;;
78732;SDS011;68056;52.530;5.454;2023-02-23T04:22:37;44.13;;;17.23;;
78732;SDS011;68056;52.530;5.454;2023-02-23T04:25:03;40.92;;;14.45;;
78732;SDS011;68056;52.530;5.454;2023-02-23T04:27:33;46.20;;;16.15;;
78732;SDS011;68056;52.530;5.454;2023-02-23T04:29:59;41.15;;;15.88;;
78732;SDS011;68056;52.530;5.454;2023-02-23T04:32:27;44.40;;;15.70;;
78732;SDS011;68056;52.530;5.454;2023-02-23T04:34:54;37.70;;;15.73;;
78732;SDS011;68056;52.530;5.454;2023-02-23T04:37:19;32.58;;;15.80;;
78732;SDS011;68056;52.530;5.454;2023-02-23T04:39:45;40.17;;;15.38;;
78732;SDS011;68056;52.530;5.454;2023-02-23T04:42:14;36.88;;;14.27;;
78732;SDS011;68056;52.530;5.454;2023-02-23T04:44:41;45.85;;;16.55;;
78732;SDS011;68056;52.530;5.454;2023-02-23T04:47:06;40.45;;;15.95;;
78732;SDS011;68056;52.530;5.454;2023-02-23T04:49:32;40.05;;;16.25;;
78732;SDS011;68056;52.530;5.454;2023-02-23T04:51:57;35.70;;;14.55;;
78732;SDS011;68056;52.530;5.454;2023-02-23T04:54:23;37.25;;;15.55;;
78732;SDS011;68056;52.530;5.454;2023-02-23T04:56:50;33.92;;;13.95;;
78732;SDS011;68056;52.530;5.454;2023-02-23T04:59:15;36.28;;;15.32;;
78732;SDS011;68056;52.530;5.454;2023-02-23T05:01:41;39.97;;;14.73;;
78732;SDS011;68056;52.530;5.454;2023-02-23T05:04:07;36.80;;;15.20;;
78732;SDS011;68056;52.530;5.454;2023-02-23T05:06:32;41.90;;;15.70;;
78732;SDS011;68056;52.530;5.454;2023-02-23T05:08:58;31.20;;;13.55;;
78732;SDS011;68056;52.530;5.454;2023-02-23T05:11:24;35.28;;;13.27;;
78732;SDS011;68056;52.530;5.454;2023-02-23T05:16:18;31.17;;;12.32;;
78732;SDS011;68056;52.530;5.454;2023-02-23T05:18:43;36.15;;;14.32;;
78732;SDS011;68056;52.530;5.454;2023-02-23T05:21:09;40.80;;;14.15;;
78732;SDS011;68056;52.530;5.454;2023-02-23T05:23:35;36.92;;;13.40;;
78732;SDS011;68056;52.530;5.454;2023-02-23T05:26:05;38.63;;;14.80;;
78732;SDS011;68056;52.530;5.454;2023-02-23T05:28:35;36.58;;;13.82;;
78732;SDS011;68056;52.530;5.454;2023-02-23T05:31:02;34.67;;;13.95;;
78732;SDS011;68056;52.530;5.454;2023-02-23T05:33:29;36.08;;;13.43;;
78732;SDS011;68056;52.530;5.454;2023-02-23T05:35:55;39.35;;;14.38;;
78732;SDS011;68056;52.530;5.454;2023-02-23T05:38:20;36.95;;;14.57;;
78732;SDS011;68056;52.530;5.454;2023-02-23T05:40:46;35.80;;;13.88;;
78732;SDS011;68056;52.530;5.454;2023-02-23T05:43:12;41.45;;;14.38;;
78732;SDS011;68056;52.530;5.454;2023-02-23T05:45:41;35.90;;;13.20;;
78732;SDS011;68056;52.530;5.454;2023-02-23T05:48:07;36.63;;;13.43;;
78732;SDS011;68056;52.530;5.454;2023-02-23T05:50:33;41.65;;;14.68;;
78732;SDS011;68056;52.530;5.454;2023-02-23T05:52:59;36.72;;;13.20;;
78732;SDS011;68056;52.530;5.454;2023-02-23T05:55:25;32.70;;;11.98;;
78732;SDS011;68056;52.530;5.454;2023-02-23T05:57:51;36.53;;;13.60;;
78732;SDS011;68056;52.530;5.454;2023-02-23T06:00:17;33.08;;;11.98;;
78732;SDS011;68056;52.530;5.454;2023-02-23T06:02:43;35.55;;;12.60;;
78732;SDS011;68056;52.530;5.454;2023-02-23T06:05:09;30.42;;;11.40;;
78732;SDS011;68056;52.530;5.454;2023-02-23T06:07:36;33.22;;;12.48;;
78732;SDS011;68056;52.530;5.454;2023-02-23T06:10:02;32.30;;;13.25;;
78732;SDS011;68056;52.530;5.454;2023-02-23T06:12:29;37.22;;;13.88;;
78732;SDS011;68056;52.530;5.454;2023-02-23T06:14:54;28.13;;;12.57;;
78732;SDS011;68056;52.530;5.454;2023-02-23T06:17:21;32.10;;;11.48;;
78732;SDS011;68056;52.530;5.454;2023-02-23T06:19:47;38.38;;;13.50;;
78732;SDS011;68056;52.530;5.454;2023-02-23T06:22:13;27.92;;;12.00;;
78732;SDS011;68056;52.530;5.454;2023-02-23T06:24:41;35.28;;;12.93;;
78732;SDS011;68056;52.530;5.454;2023-02-23T06:27:07;37.10;;;13.93;;
78732;SDS011;68056;52.530;5.454;2023-02-23T06:29:33;30.50;;;12.85;;
78732;SDS011;68056;52.530;5.454;2023-02-23T06:31:58;34.65;;;14.85;;
78732;SDS011;68056;52.530;5.454;2023-02-23T06:34:24;35.35;;;13.52;;
78732;SDS011;68056;52.530;5.454;2023-02-23T06:36:50;33.95;;;12.93;;
78732;SDS011;68056;52.530;5.454;2023-02-23T06:39:15;31.80;;;13.93;;
78732;SDS011;68056;52.530;5.454;2023-02-23T06:41:41;36.30;;;14.57;;
78732;SDS011;68056;52.530;5.454;2023-02-23T06:44:06;36.35;;;13.00;;
78732;SDS011;68056;52.530;5.454;2023-02-23T06:46:32;36.03;;;13.57;;
78732;SDS011;68056;52.530;5.454;2023-02-23T06:48:58;28.52;;;11.82;;
78732;SDS011;68056;52.530;5.454;2023-02-23T06:51:24;31.23;;;11.88;;
78732;SDS011;68056;52.530;5.454;2023-02-23T06:53:50;31.58;;;14.95;;
78732;SDS011;68056;52.530;5.454;2023-02-23T06:56:19;35.10;;;14.05;;
78732;SDS011;68056;52.530;5.454;2023-02-23T06:58:45;35.28;;;12.60;;
78732;SDS011;68056;52.530;5.454;2023-02-23T07:01:12;36.88;;;13.57;;
78732;SDS011;68056;52.530;5.454;2023-02-23T07:03:38;36.92;;;12.93;;
78732;SDS011;68056;52.530;5.454;2023-02-23T07:06:04;36.03;;;13.95;;
78732;SDS011;68056;52.530;5.454;2023-02-23T07:08:30;31.52;;;12.45;;
78732;SDS011;68056;52.530;5.454;2023-02-23T07:13:32;30.40;;;12.13;;
78732;SDS011;68056;52.530;5.454;2023-02-23T07:15:58;37.28;;;13.57;;
78732;SDS011;68056;52.530;5.454;2023-02-23T07:18:24;44.35;;;14.95;;
78732;SDS011;68056;52.530;5.454;2023-02-23T07:20:50;41.22;;;14.77;;
78732;SDS011;68056;52.530;5.454;2023-02-23T07:23:16;33.85;;;12.75;;
78732;SDS011;68056;52.530;5.454;2023-02-23T07:25:42;30.85;;;14.85;;
78732;SDS011;68056;52.530;5.454;2023-02-23T07:28:08;34.22;;;13.45;;
78732;SDS011;68056;52.530;5.454;2023-02-23T07:30:34;38.53;;;13.52;;
78732;SDS011;68056;52.530;5.454;2023-02-23T07:32:59;37.65;;;15.07;;
78732;SDS011;68056;52.530;5.454;2023-02-23T07:35:25;41.90;;;15.55;;
78732;SDS011;68056;52.530;5.454;2023-02-23T07:37:51;29.60;;;12.63;;
78732;SDS011;68056;52.530;5.454;2023-02-23T07:40:17;37.70;;;15.30;;
78732;SDS011;68056;52.530;5.454;2023-02-23T07:42:43;34.80;;;13.23;;
78732;SDS011;68056;52.530;5.454;2023-02-23T07:45:09;32.47;;;13.90;;
78732;SDS011;68056;52.530;5.454;2023-02-23T07:47:35;37.72;;;14.70;;
78732;SDS011;68056;52.530;5.454;2023-02-23T07:50:02;36.55;;;14.05;;
78732;SDS011;68056;52.530;5.454;2023-02-23T07:52:33;34.90;;;14.02;;
78732;SDS011;68056;52.530;5.454;2023-02-23T07:55:00;35.33;;;13.35;;
78732;SDS011;68056;52.530;5.454;2023-02-23T07:57:25;36.03;;;13.27;;
78732;SDS011;68056;52.530;5.454;2023-02-23T07:59:51;39.53;;;13.98;;
78732;SDS011;68056;52.530;5.454;2023-02-23T08:02:16;35.13;;;13.55;;
78732;SDS011;68056;52.530;5.454;2023-02-23T08:04:42;35.03;;;12.55;;
78732;SDS011;68056;52.530;5.454;2023-02-23T08:07:08;34.42;;;13.85;;
78732;SDS011;68056;52.530;5.454;2023-02-23T08:09:34;26.40;;;12.23;;
78732;SDS011;68056;52.530;5.454;2023-02-23T08:12:01;38.53;;;12.95;;
78732;SDS011;68056;52.530;5.454;2023-02-23T08:14:27;36.00;;;14.15;;
78732;SDS011;68056;52.530;5.454;2023-02-23T08:16:52;38.75;;;14.57;;
78732;SDS011;68056;52.530;5.454;2023-02-23T08:19:18;36.20;;;13.82;;
78732;SDS011;68056;52.530;5.454;2023-02-23T08:21:46;40.63;;;13.82;;
78732;SDS011;68056;52.530;5.454;2023-02-23T08:24:13;40.95;;;13.95;;
78732;SDS011;68056;52.530;5.454;2023-02-23T08:26:39;36.60;;;12.95;;
78732;SDS011;68056;52.530;5.454;2023-02-23T08:29:05;39.60;;;14.70;;
78732;SDS011;68056;52.530;5.454;2023-02-23T08:31:31;39.13;;;13.38;;
78732;SDS011;68056;52.530;5.454;2023-02-23T08:33:57;32.47;;;12.55;;
78732;SDS011;68056;52.530;5.454;2023-02-23T08:36:23;33.00;;;12.70;;
78732;SDS011;68056;52.530;5.454;2023-02-23T08:38:48;30.58;;;13.30;;
78732;SDS011;68056;52.530;5.454;2023-02-23T08:41:14;33.65;;;12.57;;
78732;SDS011;68056;52.530;5.454;2023-02-23T08:43:41;36.65;;;13.88;;
78732;SDS011;68056;52.530;5.454;2023-02-23T08:46:06;27.33;;;11.90;;
78732;SDS011;68056;52.530;5.454;2023-02-23T08:48:32;30.88;;;12.45;;
78732;SDS011;68056;52.530;5.454;2023-02-23T08:50:58;36.33;;;13.00;;
78732;SDS011;68056;52.530;5.454;2023-02-23T08:53:25;29.92;;;11.73;;
78732;SDS011;68056;52.530;5.454;2023-02-23T08:56:03;37.63;;;13.15;;
78732;SDS011;68056;52.530;5.454;2023-02-23T08:58:32;32.28;;;12.13;;
78732;SDS011;68056;52.530;5.454;2023-02-23T09:00:59;30.30;;;11.02;;
78732;SDS011;68056;52.530;5.454;2023-02-23T09:03:26;33.17;;;12.40;;
78732;SDS011;68056;52.530;5.454;2023-02-23T09:05:54;32.92;;;12.48;;
78732;SDS011;68056;52.530;5.454;2023-02-23T09:08:21;29.30;;;10.52;;
78732;SDS011;68056;52.530;5.454;2023-02-23T09:10:47;30.58;;;12.35;;
78732;SDS011;68056;52.530;5.454;2023-02-23T09:13:12;31.08;;;11.30;;
78732;SDS011;68056;52.530;5.454;2023-02-23T09:15:39;28.98;;;11.30;;
78732;SDS011;68056;52.530;5.454;2023-02-23T09:18:06;26.67;;;11.50;;
78732;SDS011;68056;52.530;5.454;2023-02-23T09:20:34;31.80;;;12.45;;
78732;SDS011;68056;52.530;5.454;2023-02-23T09:23:00;31.00;;;11.90;;
78732;SDS011;68056;52.530;5.454;2023-02-23T09:25:26;32.88;;;12.63;;
78732;SDS011;68056;52.530;5.454;2023-02-23T09:27:53;35.85;;;12.88;;
78732;SDS011;68056;52.530;5.454;2023-02-23T09:30:24;35.72;;;12.85;;
78732;SDS011;68056;52.530;5.454;2023-02-23T09:32:51;33.03;;;11.82;;
78732;SDS011;68056;52.530;5.454;2023-02-23T09:35:18;29.98;;;11.45;;
78732;SDS011;68056;52.530;5.454;2023-02-23T09:37:47;27.55;;;10.25;;
78732;SDS011;68056;52.530;5.454;2023-02-23T09:40:22;29.05;;;12.10;;
78732;SDS011;68056;52.530;5.454;2023-02-23T09:43:10;34.03;;;12.25;;
78732;SDS011;68056;52.530;5.454;2023-02-23T09:45:38;32.75;;;10.68;;
78732;SDS011;68056;52.530;5.454;2023-02-23T09:48:13;28.48;;;11.23;;
78732;SDS011;68056;52.530;5.454;2023-02-23T09:50:46;28.88;;;10.40;;
78732;SDS011;68056;52.530;5.454;2023-02-23T09:55:55;21.33;;;8.48;;
78732;SDS011;68056;52.530;5.454;2023-02-23T09:58:32;30.52;;;11.60;;
78732;SDS011;68056;52.530;5.454;2023-02-23T10:03:37;25.90;;;10.20;;
78732;SDS011;68056;52.530;5.454;2023-02-23T10:06:08;27.38;;;10.57;;
78732;SDS011;68056;52.530;5.454;2023-02-23T10:17:36;26.63;;;10.02;;
78732;SDS011;68056;52.530;5.454;2023-02-23T10:23:26;26.65;;;10.00;;
78732;SDS011;68056;52.530;5.454;2023-02-23T10:25:56;28.83;;;9.77;;
78732;SDS011;68056;52.530;5.454;2023-02-23T10:28:24;27.17;;;10.07;;
78732;SDS011;68056;52.530;5.454;2023-02-23T10:30:52;23.52;;;9.52;;
78732;SDS011;68056;52.530;5.454;2023-02-23T10:33:20;27.13;;;10.68;;
78732;SDS011;68056;52.530;5.454;2023-02-23T10:35:54;22.92;;;8.60;;
78732;SDS011;68056;52.530;5.454;2023-02-23T10:38:24;31.35;;;11.23;;
78732;SDS011;68056;52.530;5.454;2023-02-23T10:40:50;30.45;;;10.65;;
78732;SDS011;68056;52.530;5.454;2023-02-23T10:43:19;22.17;;;8.57;;
78732;SDS011;68056;52.530;5.454;2023-02-23T10:45:46;25.60;;;10.43;;
78732;SDS011;68056;52.530;5.454;2023-02-23T10:48:20;24.85;;;10.57;;
78732;SDS011;68056;52.530;5.454;2023-02-23T10:50:48;27.95;;;10.23;;
78732;SDS011;68056;52.530;5.454;2023-02-23T10:56:02;27.95;;;11.27;;
78732;SDS011;68056;52.530;5.454;2023-02-23T10:58:38;30.02;;;10.50;;
78732;SDS011;68056;52.530;5.454;2023-02-23T11:01:05;27.02;;;9.27;;
78732;SDS011;68056;52.530;5.454;2023-02-23T11:03:32;24.27;;;9.63;;
78732;SDS011;68056;52.530;5.454;2023-02-23T11:06:02;25.08;;;8.35;;
78732;SDS011;68056;52.530;5.454;2023-02-23T11:08:36;23.63;;;9.93;;
78732;SDS011;68056;52.530;5.454;2023-02-23T11:11:10;25.38;;;9.95;;
78732;SDS011;68056;52.530;5.454;2023-02-23T11:13:49;26.02;;;10.15;;
78732;SDS011;68056;52.530;5.454;2023-02-23T11:16:25;23.50;;;9.85;;
78732;SDS011;68056;52.530;5.454;2023-02-23T11:18:55;19.55;;;8.95;;
78732;SDS011;68056;52.530;5.454;2023-02-23T11:21:29;21.13;;;8.48;;
78732;SDS011;68056;52.530;5.454;2023-02-23T11:26:36;18.95;;;8.98;;
78732;SDS011;68056;52.530;5.454;2023-02-23T11:29:11;22.27;;;8.55;;
78732;SDS011;68056;52.530;5.454;2023-02-23T11:31:53;23.58;;;9.55;;
78732;SDS011;68056;52.530;5.454;2023-02-23T11:34:29;23.27;;;9.23;;
78732;SDS011;68056;52.530;5.454;2023-02-23T11:36:57;20.45;;;8.30;;
78732;SDS011;68056;52.530;5.454;2023-02-23T11:39:25;23.55;;;9.05;;
78732;SDS011;68056;52.530;5.454;2023-02-23T11:44:38;19.20;;;7.43;;
78732;SDS011;68056;52.530;5.454;2023-02-23T11:47:04;15.02;;;6.57;;
78732;SDS011;68056;52.530;5.454;2023-02-23T11:49:36;22.90;;;8.27;;
78732;SDS011;68056;52.530;5.454;2023-02-23T11:52:03;21.50;;;8.10;;
78732;SDS011;68056;52.530;5.454;2023-02-23T11:54:39;16.50;;;6.53;;
78732;SDS011;68056;52.530;5.454;2023-02-23T11:57:18;17.58;;;7.38;;
78732;SDS011;68056;52.530;5.454;2023-02-23T11:59:49;18.05;;;7.25;;
78732;SDS011;68056;52.530;5.454;2023-02-23T12:02:18;12.50;;;5.75;;
78732;SDS011;68056;52.530;5.454;2023-02-23T12:07:32;14.13;;;6.57;;
78732;SDS011;68056;52.530;5.454;2023-02-23T12:10:12;15.75;;;7.10;;
78732;SDS011;68056;52.530;5.454;2023-02-23T12:20:50;20.17;;;8.52;;
78732;SDS011;68056;52.530;5.454;2023-02-23T12:23:21;17.75;;;7.50;;
78732;SDS011;68056;52.530;5.454;2023-02-23T12:29:02;21.95;;;7.75;;
78732;SDS011;68056;52.530;5.454;2023-02-23T12:31:37;18.52;;;7.28;;
78732;SDS011;68056;52.530;5.454;2023-02-23T12:34:10;23.33;;;8.30;;
78732;SDS011;68056;52.530;5.454;2023-02-23T12:36:41;17.20;;;7.40;;
78732;SDS011;68056;52.530;5.454;2023-02-23T12:41:56;21.55;;;8.82;;
78732;SDS011;68056;52.530;5.454;2023-02-23T12:49:53;21.15;;;9.15;;
78732;SDS011;68056;52.530;5.454;2023-02-23T12:52:39;28.42;;;9.68;;
78732;SDS011;68056;52.530;5.454;2023-02-23T12:55:11;22.80;;;8.95;;
78732;SDS011;68056;52.530;5.454;2023-02-23T12:57:47;21.92;;;9.18;;
78732;SDS011;68056;52.530;5.454;2023-02-23T13:00:30;21.15;;;9.20;;
78732;SDS011;68056;52.530;5.454;2023-02-23T13:05:53;27.65;;;9.68;;
78732;SDS011;68056;52.530;5.454;2023-02-23T13:17:01;30.42;;;10.93;;
78732;SDS011;68056;52.530;5.454;2023-02-23T13:24:46;33.78;;;10.43;;
78732;SDS011;68056;52.530;5.454;2023-02-23T13:27:14;43.95;;;15.45;;
78732;SDS011;68056;52.530;5.454;2023-02-23T13:29:46;45.17;;;15.38;;
78732;SDS011;68056;52.530;5.454;2023-02-23T13:32:18;38.63;;;12.60;;
78732;SDS011;68056;52.530;5.454;2023-02-23T13:34:53;34.53;;;12.13;;
78732;SDS011;68056;52.530;5.454;2023-02-23T13:43:07;19.90;;;6.25;;
78732;SDS011;68056;52.530;5.454;2023-02-23T13:48:40;11.90;;;4.20;;
78732;SDS011;68056;52.530;5.454;2023-02-23T13:56:53;6.38;;;2.28;;
78732;SDS011;68056;52.530;5.454;2023-02-23T13:59:21;7.22;;;1.35;;
78732;SDS011;68056;52.530;5.454;2023-02-23T14:01:53;5.22;;;1.77;;
78732;SDS011;68056;52.530;5.454;2023-02-23T14:07:13;7.03;;;1.92;;
78732;SDS011;68056;52.530;5.454;2023-02-23T14:09:43;10.90;;;2.28;;
78732;SDS011;68056;52.530;5.454;2023-02-23T14:12:22;12.77;;;2.63;;
78732;SDS011;68056;52.530;5.454;2023-02-23T14:14:50;9.82;;;2.60;;
78732;SDS011;68056;52.530;5.454;2023-02-23T14:19:43;14.48;;;2.33;;
78732;SDS011;68056;52.530;5.454;2023-02-23T14:22:32;18.73;;;3.35;;
78732;SDS011;68056;52.530;5.454;2023-02-23T14:27:59;12.25;;;2.80;;
78732;SDS011;68056;52.530;5.454;2023-02-23T14:30:27;11.18;;;2.35;;
78732;SDS011;68056;52.530;5.454;2023-02-23T14:33:07;11.32;;;2.50;;
78732;SDS011;68056;52.530;5.454;2023-02-23T14:36:00;9.70;;;2.20;;
78732;SDS011;68056;52.530;5.454;2023-02-23T14:38:30;14.02;;;2.63;;
78732;SDS011;68056;52.530;5.454;2023-02-23T14:40:58;8.00;;;2.10;;
78732;SDS011;68056;52.530;5.454;2023-02-23T14:46:26;10.75;;;2.28;;
78732;SDS011;68056;52.530;5.454;2023-02-23T14:49:04;10.90;;;2.25;;
78732;SDS011;68056;52.530;5.454;2023-02-23T14:51:39;11.23;;;1.67;;
78732;SDS011;68056;52.530;5.454;2023-02-23T14:55:03;10.63;;;2.90;;
78732;SDS011;68056;52.530;5.454;2023-02-23T14:57:06;13.23;;;2.13;;
78732;SDS011;68056;52.530;5.454;2023-02-23T14:59:43;10.57;;;2.13;;
78732;SDS011;68056;52.530;5.454;2023-02-23T15:02:30;14.32;;;2.78;;
78732;SDS011;68056;52.530;5.454;2023-02-23T15:04:55;13.00;;;2.83;;
78732;SDS011;68056;52.530;5.454;2023-02-23T15:07:30;11.13;;;1.70;;
78732;SDS011;68056;52.530;5.454;2023-02-23T15:09:57;19.90;;;3.75;;
78732;SDS011;68056;52.530;5.454;2023-02-23T15:12:27;13.40;;;2.65;;
78732;SDS011;68056;52.530;5.454;2023-02-23T15:14:59;12.48;;;2.05;;
78732;SDS011;68056;52.530;5.454;2023-02-23T15:17:31;11.55;;;1.88;;
78732;SDS011;68056;52.530;5.454;2023-02-23T15:20:07;11.43;;;2.53;;
78732;SDS011;68056;52.530;5.454;2023-02-23T15:22:39;17.33;;;2.83;;
78732;SDS011;68056;52.530;5.454;2023-02-23T15:25:39;17.77;;;2.33;;
78732;SDS011;68056;52.530;5.454;2023-02-23T15:28:09;13.20;;;2.17;;
78732;SDS011;68056;52.530;5.454;2023-02-23T15:30:44;17.25;;;2.47;;
78732;SDS011;68056;52.530;5.454;2023-02-23T15:33:12;19.30;;;2.88;;
78732;SDS011;68056;52.530;5.454;2023-02-23T15:35:40;16.08;;;2.90;;
78732;SDS011;68056;52.530;5.454;2023-02-23T15:38:15;10.85;;;1.75;;
78732;SDS011;68056;52.530;5.454;2023-02-23T15:40:46;13.45;;;2.28;;
78732;SDS011;68056;52.530;5.454;2023-02-23T15:43:18;16.85;;;2.33;;
78732;SDS011;68056;52.530;5.454;2023-02-23T15:45:44;14.90;;;2.47;;
78732;SDS011;68056;52.530;5.454;2023-02-23T15:48:23;11.80;;;2.33;;
78732;SDS011;68056;52.530;5.454;2023-02-23T15:50:59;12.23;;;1.73;;
78732;SDS011;68056;52.530;5.454;2023-02-23T15:56:09;12.60;;;1.63;;
78732;SDS011;68056;52.530;5.454;2023-02-23T15:58:39;7.15;;;1.77;;
78732;SDS011;68056;52.530;5.454;2023-02-23T16:01:09;15.63;;;2.20;;
78732;SDS011;68056;52.530;5.454;2023-02-23T16:03:37;11.50;;;2.25;;
78732;SDS011;68056;52.530;5.454;2023-02-23T16:11:49;14.48;;;2.10;;
78732;SDS011;68056;52.530;5.454;2023-02-23T16:14:31;10.05;;;1.50;;
78732;SDS011;68056;52.530;5.454;2023-02-23T16:17:06;16.05;;;2.17;;
78732;SDS011;68056;52.530;5.454;2023-02-23T16:20:01;10.98;;;2.20;;
78732;SDS011;68056;52.530;5.454;2023-02-23T16:22:35;18.73;;;2.60;;
78732;SDS011;68056;52.530;5.454;2023-02-23T16:25:05;17.52;;;2.20;;
78732;SDS011;68056;52.530;5.454;2023-02-23T16:27:34;6.50;;;1.70;;
78732;SDS011;68056;52.530;5.454;2023-02-23T16:30:14;11.50;;;2.15;;
78732;SDS011;68056;52.530;5.454;2023-02-23T16:32:48;9.38;;;1.38;;
78732;SDS011;68056;52.530;5.454;2023-02-23T16:35:45;12.60;;;2.33;;
78732;SDS011;68056;52.530;5.454;2023-02-23T16:43:26;12.32;;;1.73;;
78732;SDS011;68056;52.530;5.454;2023-02-23T16:45:53;10.75;;;2.00;;
78732;SDS011;68056;52.530;5.454;2023-02-23T16:48:20;9.82;;;1.83;;
78732;SDS011;68056;52.530;5.454;2023-02-23T16:50:46;7.80;;;1.20;;
78732;SDS011;68056;52.530;5.454;2023-02-23T16:53:13;18.20;;;2.28;;
78732;SDS011;68056;52.530;5.454;2023-02-23T16:55:40;14.45;;;3.00;;
78732;SDS011;68056;52.530;5.454;2023-02-23T16:58:21;11.95;;;1.83;;
78732;SDS011;68056;52.530;5.454;2023-02-23T17:00:49;9.98;;;1.80;;
78732;SDS011;68056;52.530;5.454;2023-02-23T17:03:20;12.90;;;2.42;;
78732;SDS011;68056;52.530;5.454;2023-02-23T17:05:50;16.00;;;2.15;;
78732;SDS011;68056;52.530;5.454;2023-02-23T17:08:16;11.50;;;1.90;;